Time;durP1;ratioP1;P1;durP2;ratioP2;P2;SDS_P1;SDS_P2;PMS_P1;PMS_P2;Temp;Humidity;BMP_temperature;BMP_pressure;BME280_temperature;BME280_humidity;BME280_pressure;Samples;Min_cycle;Max_cycle;Signal;HPM_P1;HPM_P2
2023/01/13 00:02:13;;;;;;;;;;;;;;;28.40;23.58;101249.31;5060396;28;933;-24
2023/01/13 00:04:38;;;;;;;;;;;;;;;28.25;24.11;101246.50;5059189;28;1023;-24
2023/01/13 00:07:03;;;;;;;;;;;;;;;28.13;23.91;101256.06;5072894;28;1238;-26
2023/01/13 00:09:28;;;;;;;;;;;;;;;28.32;23.96;101254.75;5058872;28;1107;-24
2023/01/13 00:11:55;;;;;;;;;;;;;;;28.60;23.57;101249.69;5072438;28;1082;-23
2023/01/13 00:14:20;;;;;;;;;;;;;;;28.60;23.53;101249.69;5066929;28;1159;-24
2023/01/13 00:16:45;;;;;;;;;;;;;;;28.47;23.28;101238.63;5079139;28;1027;-25
2023/01/13 00:19:11;;;;;;;;;;;;;;;28.34;23.99;101242.75;5071307;28;1951;-23
2023/01/13 00:21:36;;;;;;;;;;;;;;;28.22;24.08;101247.72;5072968;28;1094;-23
2023/01/13 00:24:01;;;;;;;;;;;;;;;28.25;24.08;101238.38;5071372;28;1139;-28
2023/01/13 00:26:29;;;;;;;;;;;;;;;28.53;23.81;101239.75;5058462;28;1097;-26
2023/01/13 00:28:57;;;;;;;;;;;;;;;28.73;23.33;101245.50;5058838;28;1031;-29
2023/01/13 00:31:22;;;;;;;;;;;;;;;28.53;23.58;101234.34;5073095;28;1147;-25
2023/01/13 00:33:48;;;;;;;;;;;;;;;28.31;23.71;101239.53;5078798;28;1042;-23
2023/01/13 00:36:14;;;;;;;;;;;;;;;28.20;24.12;101236.22;5078512;28;1101;-24
2023/01/13 00:38:39;;;;;;;;;;;;;;;28.20;24.30;101227.25;5070798;28;892;-25
2023/01/13 00:41:05;;;;;;;;;;;;;;;28.36;24.03;101224.47;5058504;28;1951;-23
2023/01/13 00:43:31;;;;;;;;;;;;;;;28.51;24.08;101215.56;5070462;28;1123;-25
2023/01/13 00:45:56;;;;;;;;;;;;;;;28.71;23.72;101215.91;5059476;28;1143;-25
2023/01/13 00:48:22;;;;;;;;;;;;;;;28.62;23.24;101213.44;5078501;28;1028;-26
2023/01/13 00:50:54;;;;;;;;;;;;;;;28.54;24.01;101215.22;5064862;28;1154;-23
2023/01/13 00:53:19;;;;;;;;;;;;;;;28.52;24.16;101216.41;5078565;28;1003;-24
2023/01/13 00:55:44;;;;;;;;;;;;;;;28.46;24.03;101218.81;5063703;28;1154;-24
2023/01/13 00:58:09;;;;;;;;;;;;;;;28.83;23.57;101219.03;5066247;28;1551;-24
2023/01/13 01:00:35;;;;;;;;;;;;;;;28.71;23.30;101220.50;5077379;28;1959;-24
2023/01/13 01:03:00;;;;;;;;;;;;;;;28.46;24.00;101215.28;5065301;28;896;-23
2023/01/13 01:05:25;;;;;;;;;;;;;;;28.27;24.25;101221.97;5064487;28;1178;-24
2023/01/13 01:07:50;;;;;;;;;;;;;;;28.18;24.74;101222.03;5078163;28;1054;-25
2023/01/13 01:10:16;;;;;;;;;;;;;;;28.51;24.16;101220.16;5078072;28;1019;-28
2023/01/13 01:12:41;;;;;;;;;;;;;;;28.56;24.10;101212.34;5077664;28;1062;-24
2023/01/13 01:15:08;;;;;;;;;;;;;;;28.59;23.67;101215.50;5077525;28;1142;-26
2023/01/13 01:17:34;;;;;;;;;;;;;;;28.62;24.10;101218.88;5052336;28;1065;-24
2023/01/13 01:19:59;;;;;;;;;;;;;;;28.51;24.16;101212.84;5064585;28;1898;-26
2023/01/13 01:22:24;;;;;;;;;;;;;;;28.33;24.44;101219.41;5078030;28;1026;-24
2023/01/13 01:24:50;;;;;;;;;;;;;;;28.53;24.13;101218.13;5064168;28;1182;-25
2023/01/13 01:27:15;;;;;;;;;;;;;;;28.87;23.92;101226.78;5057757;28;877;-23
2023/01/13 01:29:40;;;;;;;;;;;;;;;28.57;24.15;101222.13;5070796;28;1043;-26
2023/01/13 01:32:05;;;;;;;;;;;;;;;28.34;24.35;101220.28;5059515;28;1155;-29
2023/01/13 01:34:31;;;;;;;;;;;;;;;28.08;24.93;101221.41;5077652;28;1046;-25
2023/01/13 01:36:56;;;;;;;;;;;;;;;28.09;24.73;101228.50;5064133;28;1158;-29
2023/01/13 01:39:21;;;;;;;;;;;;;;;28.42;24.62;101217.50;5064457;28;1894;-27
2023/01/13 01:44:49;;;;;;;;;;;;;;;28.61;23.85;101215.34;5063776;28;1189;-26
2023/01/13 01:47:15;;;;;;;;;;;;;;;28.31;24.65;101216.00;5077256;28;1126;-23
2023/01/13 01:49:40;;;;;;;;;;;;;;;28.43;24.48;101210.22;5077412;28;1117;-23
2023/01/13 01:52:07;;;;;;;;;;;;;;;28.37;24.61;101214.50;5048310;28;893;-24
2023/01/13 01:54:38;;;;;;;;;;;;;;;28.63;24.42;101210.56;5044486;28;1120;-24
2023/01/13 01:57:04;;;;;;;;;;;;;;;28.96;23.72;101210.25;5077248;28;1031;-26
2023/01/13 01:59:29;;;;;;;;;;;;;;;28.56;23.95;101210.44;5058695;28;1926;-25
2023/01/13 02:01:55;;;;;;;;;;;;;;;28.51;24.24;101203.91;5058764;28;1202;-27
2023/01/13 02:04:22;;;;;;;;;;;;;;;28.18;24.83;101208.50;5058646;28;1051;-24
2023/01/13 02:06:47;;;;;;;;;;;;;;;28.27;24.71;101208.44;5059190;28;1143;-24
2023/01/13 02:09:12;;;;;;;;;;;;;;;28.60;24.29;101206.38;5040474;28;1179;-24
2023/01/13 02:14:22;;;;;;;;;;;;;;;28.66;23.79;101209.38;5063056;28;969;-27
2023/01/13 02:16:53;;;;;;;;;;;;;;;28.57;23.93;101211.31;5052555;28;953;-23
2023/01/13 02:19:19;;;;;;;;;;;;;;;29.10;23.91;101210.50;5076509;28;1890;-26
2023/01/13 02:21:47;;;;;;;;;;;;;;;28.91;23.60;101212.69;5063244;28;1143;-25
2023/01/13 02:27:23;;;;;;;;;;;;;;;28.07;25.29;101215.19;5054781;28;885;-23
2023/01/13 02:33:11;;;;;;;;;;;;;;;28.16;25.02;101215.94;5054733;28;1120;-23
2023/01/13 02:35:48;;;;;;;;;;;;;;;28.35;24.93;101211.13;5065917;28;1115;-24
2023/01/13 02:38:14;;;;;;;;;;;;;;;28.58;24.12;101215.69;5071485;28;1097;-26
2023/01/13 02:40:47;;;;;;;;;;;;;;;28.57;24.30;101211.31;5038964;28;1953;-25
2023/01/13 02:45:58;;;;;;;;;;;;;;;28.57;24.41;101224.84;5065824;28;1060;-25
2023/01/13 02:48:23;;;;;;;;;;;;;;;28.62;24.20;101219.72;5058609;28;1107;-24
2023/01/13 02:50:57;;;;;;;;;;;;;;;28.69;23.94;101226.09;5044668;28;1203;-25
2023/01/13 02:53:33;;;;;;;;;;;;;;;28.32;24.79;101214.16;5058078;28;1194;-25
2023/01/13 02:55:58;;;;;;;;;;;;;;;28.27;24.69;101216.56;5054171;28;1047;-26
2023/01/13 02:58:25;;;;;;;;;;;;;;;28.18;25.04;101215.75;5048762;28;1206;-25
2023/01/13 03:00:50;;;;;;;;;;;;;;;28.45;24.67;101210.88;5072088;28;1910;-24
2023/01/13 03:03:15;;;;;;;;;;;;;;;28.68;24.17;101205.44;5065408;28;1115;-27
2023/01/13 03:05:41;;;;;;;;;;;;;;;28.71;24.09;101206.97;5075767;28;1042;-23
2023/01/13 03:08:14;;;;;;;;;;;;;;;28.51;24.31;101207.44;5075659;28;1106;-23
2023/01/13 03:10:39;;;;;;;;;;;;;;;28.51;24.58;101199.31;5071779;28;1074;-25
2023/01/13 03:13:07;;;;;;;;;;;;;;;28.35;24.90;101201.16;5066277;28;1055;-24
2023/01/13 03:15:39;;;;;;;;;;;;;;;28.50;24.60;101199.50;5058294;28;1266;-23
2023/01/13 03:18:23;;;;;;;;;;;;;;;28.82;24.23;101217.34;5067824;28;1015;-23
2023/01/13 03:20:57;;;;;;;;;;;;;;;28.60;24.29;101206.38;5076099;28;1905;-25
2023/01/13 03:23:30;;;;;;;;;;;;;;;28.32;24.70;101215.00;5073753;28;1057;-25
2023/01/13 03:26:00;;;;;;;;;;;;;;;28.15;25.15;101218.81;5047806;28;1112;-24
2023/01/13 03:28:31;;;;;;;;;;;;;;;28.18;25.27;101213.91;5041208;28;1213;-24
2023/01/13 03:30:57;;;;;;;;;;;;;;;28.46;24.81;101207.16;5055340;28;1047;-25
2023/01/13 03:33:24;;;;;;;;;;;;;;;28.69;24.34;101219.84;5055524;28;1155;-25
2023/01/13 03:35:50;;;;;;;;;;;;;;;28.64;24.24;101211.41;5058312;28;1067;-24
2023/01/13 03:38:19;;;;;;;;;;;;;;;28.48;24.52;101215.94;5048499;28;1039;-22
2023/01/13 03:40:48;;;;;;;;;;;;;;;28.60;24.39;101210.94;5061613;28;1901;-27
2023/01/13 03:46:00;;;;;;;;;;;;;;;28.52;24.71;101219.13;5046840;28;1360;-23
2023/01/13 03:48:26;;;;;;;;;;;;;;;28.89;24.09;101222.03;5075399;28;1034;-25
2023/01/13 03:50:52;;;;;;;;;;;;;;;28.79;23.80;101222.28;5057971;28;1131;-25
2023/01/13 03:53:22;;;;;;;;;;;;;;;28.30;24.79;101210.78;5057560;28;892;-23
2023/01/13 03:55:49;;;;;;;;;;;;;;;28.26;24.61;101206.78;5044404;28;1230;-24
2023/01/13 03:58:16;;;;;;;;;;;;;;;28.15;24.97;101211.56;5075302;28;1299;-23
2023/01/13 04:01:02;;;;;;;;;;;;;;;28.39;24.80;101217.88;5056267;28;1901;-23
2023/01/13 04:03:27;;;;;;;;;;;;;;;28.64;24.31;101219.53;5074304;28;1264;-24
2023/01/13 04:05:55;;;;;;;;;;;;;;;28.59;24.34;101211.97;5062318;28;1119;-23
2023/01/13 04:08:21;;;;;;;;;;;;;;;28.37;24.69;101222.63;5057117;28;1133;-24
2023/01/13 04:10:51;;;;;;;;;;;;;;;28.44;24.73;101223.59;5070951;28;1019;-26
2023/01/13 04:13:17;;;;;;;;;;;;;;;28.18;24.98;101232.00;5049599;28;1099;-24
2023/01/13 04:15:43;;;;;;;;;;;;;;;28.51;24.62;101222.84;5056622;28;1078;-23
2023/01/13 04:18:11;;;;;;;;;;;;;;;28.90;24.18;101232.66;5052310;28;1127;-24
2023/01/13 04:20:37;;;;;;;;;;;;;;;28.07;20.68;101230.56;5078296;28;1957;-27
2023/01/13 04:23:02;;;;;;;;;;;;;;;26.71;23.92;101240.97;5066304;28;1167;-29
2023/01/13 04:25:27;;;;;;;;;;;;;;;26.55;23.29;101233.72;5078733;28;1109;-24
2023/01/13 04:27:53;;;;;;;;;;;;;;;26.60;24.11;101233.22;5078362;28;1095;-24
2023/01/13 04:30:18;;;;;;;;;;;;;;;26.29;24.80;101235.50;5065186;28;1194;-24
2023/01/13 04:32:43;;;;;;;;;;;;;;;26.15;25.34;101239.72;5058615;28;1075;-26
2023/01/13 04:35:09;;;;;;;;;;;;;;;25.83;25.70;101243.97;5072185;28;1155;-29
2023/01/13 04:37:34;;;;;;;;;;;;;;;25.86;25.54;101242.81;5078182;28;1118;-22
2023/01/13 04:40:00;;;;;;;;;;;;;;;25.76;25.74;101242.91;5073902;28;1901;-25
2023/01/13 04:42:25;;;;;;;;;;;;;;;25.68;25.83;101243.72;5058458;28;1028;-25
2023/01/13 04:44:50;;;;;;;;;;;;;;;24.69;21.87;101240.16;5071129;28;1421;-26
2023/01/13 04:47:15;;;;;;;;;;;;;;;23.87;22.96;101240.97;5078015;28;1012;-23
2023/01/13 04:49:41;;;;;;;;;;;;;;;24.51;23.52;101245.53;5074494;28;1117;-22
2023/01/13 04:52:06;;;;;;;;;;;;;;;24.09;23.24;101247.75;5058253;28;1075;-22
2023/01/13 04:54:31;;;;;;;;;;;;;;;23.89;22.87;101240.81;5071935;28;1139;-24
2023/01/13 04:56:56;;;;;;;;;;;;;;;24.50;24.01;101243.00;5059326;28;1239;-22
2023/01/13 04:59:22;;;;;;;;;;;;;;;24.78;25.76;101249.16;5063986;28;1905;-23
2023/01/13 05:01:47;;;;;;;;;;;;;;;25.34;24.29;101258.81;5066917;28;1004;-23
2023/01/13 05:04:14;;;;;;;;;;;;;;;25.89;24.14;101264.06;5057994;28;1165;-25
2023/01/13 05:06:39;;;;;;;;;;;;;;;26.19;24.06;101272.59;5058435;28;1098;-23
2023/01/13 05:09:05;;;;;;;;;;;;;;;25.99;24.00;101266.63;5058491;28;1182;-24
2023/01/13 05:17:02;;;;;;;;;;;;;;;25.06;24.27;101253.59;5065053;28;1055;-27
2023/01/13 05:19:27;;;;;;;;;;;;;;;25.11;25.33;101253.16;5040902;28;1953;-23
2023/01/13 05:27:21;;;;;;;;;;;;;;;26.33;22.82;101248.69;5057674;28;893;-27
2023/01/13 05:29:46;;;;;;;;;;;;;;;24.92;25.24;101268.47;5059059;28;891;-24
2023/01/13 05:32:11;;;;;;;;;;;;;;;26.64;23.15;101257.00;5058488;28;1146;-22
2023/01/13 05:34:36;;;;;;;;;;;;;;;27.17;22.38;101250.44;5058005;28;1155;-25
2023/01/13 05:37:02;;;;;;;;;;;;;;;27.51;22.02;101265.56;5057595;28;1063;-22
2023/01/13 05:43:18;;;;;;;;;;;;;;;27.75;21.31;101265.69;5052202;28;1901;-23
2023/01/13 05:44:56;;;;;;;;;;;;;;;26.90;21.84;101272.22;5057453;28;1229;-21
2023/01/13 05:47:22;;;;;;;;;;;;;;;28.04;20.37;101263.34;5057889;28;1173;-21
2023/01/13 05:49:47;;;;;;;;;;;;;;;27.37;21.43;101268.97;5053585;28;1032;-22
2023/01/13 05:52:12;;;;;;;;;;;;;;;27.07;21.27;101272.22;5058308;28;1062;-22
2023/01/13 05:54:39;;;;;;;;;;;;;;;26.89;21.68;101264.28;5057437;28;1104;-21
2023/01/13 05:57:05;;;;;;;;;;;;;;;26.78;21.76;101266.28;5057313;28;1163;-22
2023/01/13 05:59:30;;;;;;;;;;;;;;;26.85;21.66;101273.72;5056966;28;1979;-23
2023/01/13 06:01:55;;;;;;;;;;;;;;;26.87;21.89;101274.38;5056634;28;1187;-21
2023/01/13 06:04:21;;;;;;;;;;;;;;;26.90;21.49;101280.31;5058483;28;1118;-22
2023/01/13 06:06:47;;;;;;;;;;;;;;;26.97;21.50;101283.16;5065422;28;1078;-22
2023/01/13 06:09:12;;;;;;;;;;;;;;;26.94;21.10;101288.91;5057052;28;1051;-23
2023/01/13 06:11:37;;;;;;;;;;;;;;;26.98;21.29;101287.56;5056595;28;1147;-21
2023/01/13 06:14:03;;;;;;;;;;;;;;;27.13;20.98;101301.25;5057151;28;1162;-22
2023/01/13 06:16:28;;;;;;;;;;;;;;;27.41;20.86;101300.00;5056710;28;2266;-22
2023/01/13 06:18:53;;;;;;;;;;;;;;;27.63;20.54;101298.47;5066237;28;1875;-23
2023/01/13 06:21:19;;;;;;;;;;;;;;;27.81;20.68;101302.81;5048618;28;2150;-22
2023/01/13 06:23:44;;;;;;;;;;;;;;;27.94;20.44;101307.69;5043375;28;1861;-22
2023/01/13 06:26:14;;;;;;;;;;;;;;;28.11;20.45;101313.84;5051411;28;2180;-24
2023/01/13 06:28:39;;;;;;;;;;;;;;;28.22;20.45;101306.38;5023733;28;1889;-24
2023/01/13 06:31:05;;;;;;;;;;;;;;;28.32;20.58;101316.97;5052117;28;1821;-22
2023/01/13 06:33:41;;;;;;;;;;;;;;;28.47;20.56;101309.81;5028952;28;2100;-23
2023/01/13 06:36:09;;;;;;;;;;;;;;;28.56;20.29;101312.47;5032061;28;1025;-22
2023/01/13 06:38:36;;;;;;;;;;;;;;;28.53;20.36;101324.47;5060700;28;1359;-22
2023/01/13 06:41:01;;;;;;;;;;;;;;;28.75;20.16;101318.41;5051130;28;1965;-22
2023/01/13 06:43:27;;;;;;;;;;;;;;;27.95;19.84;101313.94;5068749;28;1463;-22
2023/01/13 06:45:53;;;;;;;;;;;;;;;28.68;19.63;101321.00;5075925;28;1058;-26
2023/01/13 06:48:19;;;;;;;;;;;;;;;28.55;19.50;101325.16;5062754;28;1107;-22
2023/01/13 06:50:44;;;;;;;;;;;;;;;28.31;19.77;101316.13;5067952;28;1052;-25
2023/01/13 06:53:09;;;;;;;;;;;;;;;28.54;19.52;101311.81;5069857;28;1139;-22
2023/01/13 06:55:35;;;;;;;;;;;;;;;27.60;20.95;101315.03;5062063;28;1415;-24
2023/01/13 06:58:00;;;;;;;;;;;;;;;27.65;20.57;101319.91;5058701;28;1324;-22
2023/01/13 07:00:25;;;;;;;;;;;;;;;27.41;21.19;101318.94;5071874;28;1910;-23
2023/01/13 07:02:52;;;;;;;;;;;;;;;27.41;20.77;101316.22;5050309;28;2257;-22
2023/01/13 07:05:18;;;;;;;;;;;;;;;27.44;20.60;101323.16;5055288;28;1206;-23
2023/01/13 07:07:43;;;;;;;;;;;;;;;27.45;20.95;101325.69;5064711;28;1039;-21
2023/01/13 07:10:11;;;;;;;;;;;;;;;27.68;20.37;101322.28;5061678;28;1311;-23
2023/01/13 07:15:21;;;;;;;;;;;;;;;28.05;20.64;101328.09;5064642;28;1117;-23
2023/01/13 07:17:46;;;;;;;;;;;;;;;27.44;21.67;101329.41;5052968;28;1056;-24
2023/01/13 07:20:11;;;;;;;;;;;;;;;27.55;21.72;101328.22;5055814;28;1918;-26
2023/01/13 07:22:36;;;;;;;;;;;;;;;27.62;21.67;101333.75;5054643;28;1009;-22
2023/01/13 07:25:03;;;;;;;;;;;;;;;27.57;21.86;101331.59;5049271;28;1778;-22
2023/01/13 07:27:28;;;;;;;;;;;;;;;27.82;21.34;101330.69;5047945;28;1040;-24
2023/01/13 07:29:53;;;;;;;;;;;;;;;27.91;21.49;101336.94;5055394;28;1027;-22
2023/01/13 07:32:18;;;;;;;;;;;;;;;27.99;21.54;101340.44;5043761;28;1769;-23
2023/01/13 07:34:44;;;;;;;;;;;;;;;27.96;21.76;101331.84;5046593;28;1179;-21
2023/01/13 07:37:09;;;;;;;;;;;;;;;28.09;21.37;101336.69;5050928;28;1176;-22
2023/01/13 07:39:34;;;;;;;;;;;;;;;28.33;21.35;101338.47;5046620;28;1905;-23
2023/01/13 07:44:43;;;;;;;;;;;;;;;28.34;21.37;101339.31;5038332;28;1261;-22
2023/01/13 07:47:10;;;;;;;;;;;;;;;28.36;21.57;101342.69;5051837;28;1223;-21
2023/01/13 07:49:35;;;;;;;;;;;;;;;27.96;21.89;101346.19;5049355;28;1187;-27
2023/01/13 07:52:00;;;;;;;;;;;;;;;27.64;22.38;101342.56;5046841;28;1930;-22
2023/01/13 07:54:26;;;;;;;;;;;;;;;27.23;23.26;101346.13;5057289;28;2232;-22
2023/01/13 07:56:51;;;;;;;;;;;;;;;28.68;21.29;101348.91;5053267;28;1802;-22
2023/01/13 07:59:16;;;;;;;;;;;;;;;29.14;20.59;101347.28;5062192;28;1994;-22
2023/01/13 08:01:41;;;;;;;;;;;;;;;29.28;20.62;101353.75;5048533;28;1786;-22
2023/01/13 08:04:07;;;;;;;;;;;;;;;29.29;20.58;101351.88;5048838;28;2038;-25
2023/01/13 08:06:32;;;;;;;;;;;;;;;27.87;22.90;101361.63;5046817;28;1799;-23
2023/01/13 08:08:58;;;;;;;;;;;;;;;27.97;23.08;101360.56;5060805;28;1387;-23
2023/01/13 08:11:23;;;;;;;;;;;;;;;27.98;22.91;101356.84;5065620;28;1134;-22
2023/01/13 08:13:48;;;;;;;;;;;;;;;28.03;23.04;101357.16;5078412;28;1122;-22
2023/01/13 08:16:14;;;;;;;;;;;;;;;28.17;23.06;101362.84;5055773;28;1186;-21
2023/01/13 08:18:39;;;;;;;;;;;;;;;28.13;22.95;101366.94;5044118;28;1168;-23
2023/01/13 08:21:08;;;;;;;;;;;;;;;28.39;22.52;101365.84;5055987;28;1969;-25
2023/01/13 08:23:34;;;;;;;;;;;;;;;28.21;22.36;101369.63;5056020;28;2246;-27
2023/01/13 08:26:00;;;;;;;;;;;;;;;28.12;22.86;101366.09;5063583;28;1355;-21
2023/01/13 08:28:26;;;;;;;;;;;;;;;29.27;21.52;101359.34;5058460;28;1155;-22
2023/01/13 08:30:52;;;;;;;;;;;;;;;29.61;20.99;101359.91;5051863;28;1198;-23
2023/01/13 08:33:18;;;;;;;;;;;;;;;29.71;20.95;101365.91;5050071;28;1076;-25
2023/01/13 08:35:43;;;;;;;;;;;;;;;28.90;21.68;101368.06;5078432;28;1003;-23
2023/01/13 08:38:08;;;;;;;;;;;;;;;28.16;22.72;101361.19;5074679;28;1023;-22
2023/01/13 08:40:34;;;;;;;;;;;;;;;27.96;22.87;101361.59;5059831;28;1902;-23
2023/01/13 08:42:59;;;;;;;;;;;;;;;27.95;22.92;101359.88;5047947;28;1021;-24
2023/01/13 08:45:24;;;;;;;;;;;;;;;27.86;23.05;101365.31;5071701;28;1043;-22
2023/01/13 08:47:50;;;;;;;;;;;;;;;27.95;23.02;101360.75;5057579;28;1011;-21
2023/01/13 08:50:15;;;;;;;;;;;;;;;28.01;22.79;101359.19;5055678;28;1012;-22
2023/01/13 08:52:40;;;;;;;;;;;;;;;28.13;22.60;101362.38;5056903;28;1072;-22
2023/01/13 08:55:06;;;;;;;;;;;;;;;28.24;22.55;101366.56;5065696;28;1022;-23
2023/01/13 08:57:31;;;;;;;;;;;;;;;28.38;22.59;101364.16;5065874;28;1280;-22
2023/01/13 08:59:56;;;;;;;;;;;;;;;28.62;22.55;101365.88;5061539;28;1905;-22
2023/01/13 09:02:22;;;;;;;;;;;;;;;28.69;22.46;101364.16;5070175;28;1355;-25
2023/01/13 09:04:47;;;;;;;;;;;;;;;28.34;22.64;101360.97;5073697;28;1139;-22
2023/01/13 09:07:13;;;;;;;;;;;;;;;28.79;22.47;101363.06;5057562;28;851;-22
2023/01/13 09:09:38;;;;;;;;;;;;;;;29.71;21.35;101352.34;5069551;28;2233;-23
2023/01/13 09:14:47;;;;;;;;;;;;;;;30.26;20.90;101360.19;5058595;28;1155;-26
2023/01/13 09:17:13;;;;;;;;;;;;;;;29.21;21.99;101358.22;5055951;28;1367;-22
2023/01/13 09:19:38;;;;;;;;;;;;;;;28.79;22.31;101353.09;5067850;28;1894;-23
2023/01/13 09:22:04;;;;;;;;;;;;;;;28.69;22.38;101349.78;5061756;28;1510;-22
2023/01/13 09:24:29;;;;;;;;;;;;;;;28.97;22.29;101351.97;5062511;28;1445;-21
2023/01/13 09:26:54;;;;;;;;;;;;;;;29.50;21.47;101355.75;5062657;28;1047;-22
2023/01/13 09:29:20;;;;;;;;;;;;;;;29.70;20.90;101348.78;5056140;28;1222;-22
2023/01/13 09:31:45;;;;;;;;;;;;;;;29.84;20.68;101342.72;5060202;28;888;-23
2023/01/13 09:36:56;;;;;;;;;;;;;;;27.90;23.06;101346.91;5056439;28;992;-23
2023/01/13 09:39:21;;;;;;;;;;;;;;;27.75;23.27;101339.50;5056317;28;2655;-21
2023/01/13 09:44:38;;;;;;;;;;;;;;;28.13;22.84;101340.72;5046729;28;926;-23
2023/01/13 09:47:05;;;;;;;;;;;;;;;28.20;22.83;101327.34;5056786;28;1006;-25
2023/01/13 09:49:37;;;;;;;;;;;;;;;28.33;22.64;101326.78;5038835;28;1010;-23
2023/01/13 09:52:06;;;;;;;;;;;;;;;28.34;22.49;101325.78;5056550;28;1055;-24
2023/01/13 09:54:40;;;;;;;;;;;;;;;28.32;22.54;101327.78;5063861;28;1008;-23
2023/01/13 09:57:09;;;;;;;;;;;;;;;28.44;22.48;101334.53;5043251;28;986;-25
2023/01/13 09:59:35;;;;;;;;;;;;;;;28.35;22.50;101324.75;5056159;28;1914;-23
2023/01/13 10:02:14;;;;;;;;;;;;;;;28.31;22.65;101326.13;5056873;28;1150;-25
2023/01/13 10:04:39;;;;;;;;;;;;;;;28.34;22.19;101317.69;5039208;28;1036;-23
2023/01/13 10:07:05;;;;;;;;;;;;;;;28.34;22.44;101315.78;5055697;28;921;-28
2023/01/13 10:09:40;;;;;;;;;;;;;;;28.32;22.08;101325.94;5041083;28;2057;-23
2023/01/13 10:14:52;;;;;;;;;;;;;;;28.33;22.30;101313.25;5044750;28;1029;-23
2023/01/13 10:17:17;;;;;;;;;;;;;;;28.43;22.10;101316.59;5068530;28;1170;-23
2023/01/13 10:19:43;;;;;;;;;;;;;;;28.56;22.18;101312.47;5058356;28;1910;-25
2023/01/13 10:22:17;;;;;;;;;;;;;;;28.57;22.22;101308.72;5049013;28;1448;-29
2023/01/13 10:24:43;;;;;;;;;;;;;;;28.41;22.30;101294.28;5070902;28;1039;-26
2023/01/13 10:27:23;;;;;;;;;;;;;;;28.66;22.27;101302.22;5046143;28;1219;-24
2023/01/13 10:29:49;;;;;;;;;;;;;;;28.52;22.61;101294.91;5045158;28;1176;-22
2023/01/13 10:32:14;;;;;;;;;;;;;;;27.44;23.70;101290.75;5053296;28;1179;-25
2023/01/13 10:34:48;;;;;;;;;;;;;;;27.97;23.33;101292.97;5055886;28;1151;-23
2023/01/13 10:37:20;;;;;;;;;;;;;;;28.31;22.39;101288.25;5068803;28;1107;-25
2023/01/13 10:39:46;;;;;;;;;;;;;;;29.17;21.47;101281.88;5044888;28;2193;-25
2023/01/13 10:42:16;;;;;;;;;;;;;;;29.50;21.29;101277.13;5059505;28;1131;-26
2023/01/13 10:44:51;;;;;;;;;;;;;;;28.42;22.23;101277.03;5066037;28;1119;-22
2023/01/13 10:47:25;;;;;;;;;;;;;;;28.02;23.00;101279.75;5044629;28;1155;-26
2023/01/13 10:49:58;;;;;;;;;;;;;;;27.96;23.03;101288.59;5046876;28;1419;-27
2023/01/13 10:52:24;;;;;;;;;;;;;;;28.12;23.11;101282.25;5050493;28;1164;-23
2023/01/13 10:54:52;;;;;;;;;;;;;;;28.07;23.19;101281.94;5052990;28;1206;-24
2023/01/13 10:57:18;;;;;;;;;;;;;;;27.97;23.29;101276.75;5053363;28;1539;-23
2023/01/13 10:59:44;;;;;;;;;;;;;;;28.19;22.97;101280.53;5045557;28;1973;-25
2023/01/13 11:02:15;;;;;;;;;;;;;;;28.13;23.40;101275.81;5051056;28;1251;-26
2023/01/13 11:04:43;;;;;;;;;;;;;;;28.28;22.97;101283.19;5046350;28;1149;-24
2023/01/13 11:07:38;;;;;;;;;;;;;;;28.41;23.14;101271.81;5045930;28;1215;-23
2023/01/13 11:10:09;;;;;;;;;;;;;;;28.60;22.73;101267.78;5034463;28;1417;-27
2023/01/13 11:12:39;;;;;;;;;;;;;;;28.69;22.48;101268.56;5049991;28;1262;-25
2023/01/13 11:15:06;;;;;;;;;;;;;;;27.81;23.68;101266.84;5051542;28;1103;-25
2023/01/13 11:17:41;;;;;;;;;;;;;;;28.10;23.77;101276.16;5049941;28;1136;-24
2023/01/13 11:20:06;;;;;;;;;;;;;;;29.16;22.33;101263.94;5044625;28;1894;-24
2023/01/13 11:22:36;;;;;;;;;;;;;;;29.28;22.02;101277.06;5062309;28;1028;-25
2023/01/13 11:25:02;;;;;;;;;;;;;;;28.54;22.94;101279.31;5033239;28;1075;-25
2023/01/13 11:27:39;;;;;;;;;;;;;;;28.64;22.75;101268.25;5041197;28;1251;-25
2023/01/13 11:30:16;;;;;;;;;;;;;;;28.31;23.14;101278.25;5046646;28;1443;-24
2023/01/13 11:32:47;;;;;;;;;;;;;;;28.29;23.32;101284.88;5031692;28;1133;-26
2023/01/13 11:35:17;;;;;;;;;;;;;;;28.35;23.30;101270.66;5049444;28;1230;-26
2023/01/13 11:37:43;;;;;;;;;;;;;;;28.34;23.30;101280.63;5030165;28;1946;-26
2023/01/13 11:40:11;;;;;;;;;;;;;;;28.57;22.93;101281.66;5030283;28;1890;-28
2023/01/13 11:42:38;;;;;;;;;;;;;;;28.93;22.59;101277.47;5046338;28;1260;-29
2023/01/13 11:45:15;;;;;;;;;;;;;;;29.21;22.24;101274.25;5029012;28;1096;-26
2023/01/13 11:47:41;;;;;;;;;;;;;;;29.26;22.34;101276.38;5036001;28;1247;-23
2023/01/13 11:50:13;;;;;;;;;;;;;;;29.17;22.23;101281.88;5050434;28;1275;-24
2023/01/13 11:52:41;;;;;;;;;;;;;;;28.55;22.99;101275.59;5047725;28;1346;-26
2023/01/13 11:55:19;;;;;;;;;;;;;;;28.95;22.87;101276.28;5049273;28;1275;-25
2023/01/13 11:57:55;;;;;;;;;;;;;;;29.79;21.78;101284.47;5035665;28;1251;-22
2023/01/13 12:00:20;;;;;;;;;;;;;;;30.05;21.18;101287.69;5032082;28;1902;-25
2023/01/13 12:02:51;;;;;;;;;;;;;;;30.08;21.30;101284.59;5054873;28;1278;-24
2023/01/13 12:05:32;;;;;;;;;;;;;;;29.52;21.88;101289.50;5026676;28;1165;-24
2023/01/13 12:07:58;;;;;;;;;;;;;;;28.94;22.59;101295.44;5046538;28;1737;-23
2023/01/13 12:10:24;;;;;;;;;;;;;;;28.70;23.07;101294.59;5043374;28;1247;-24
2023/01/13 12:12:50;;;;;;;;;;;;;;;29.18;22.63;101290.84;5047427;28;1175;-25
2023/01/13 12:15:18;;;;;;;;;;;;;;;29.65;22.10;101288.84;5062595;28;1012;-27
2023/01/13 12:17:52;;;;;;;;;;;;;;;29.77;21.68;101288.38;5046807;28;1184;-24
2023/01/13 12:20:21;;;;;;;;;;;;;;;30.08;21.46;101281.06;5049161;28;1901;-23
2023/01/13 12:22:46;;;;;;;;;;;;;;;28.53;23.24;101285.78;5050605;28;1152;-27
2023/01/13 12:25:27;;;;;;;;;;;;;;;28.13;23.75;101283.94;5052882;28;1238;-28
2023/01/13 12:27:55;;;;;;;;;;;;;;;28.18;23.76;101284.25;5053782;28;1148;-25
2023/01/13 12:30:35;;;;;;;;;;;;;;;28.32;23.48;101285.34;5037650;28;1045;-26
2023/01/13 12:33:04;;;;;;;;;;;;;;;28.31;23.47;101286.34;5058570;28;1096;-26
2023/01/13 12:35:38;;;;;;;;;;;;;;;28.56;23.26;101286.22;5058377;28;1198;-25
2023/01/13 12:38:27;;;;;;;;;;;;;;;28.67;23.31;101290.41;5034489;28;1770;-28
2023/01/13 12:40:55;;;;;;;;;;;;;;;28.79;23.01;101281.84;5020993;28;1886;-26
2023/01/13 12:46:20;;;;;;;;;;;;;;;28.83;23.06;101288.56;5035014;28;1264;-23
2023/01/13 12:48:58;;;;;;;;;;;;;;;28.29;23.38;101280.31;5051980;28;1346;-25
2023/01/13 12:51:34;;;;;;;;;;;;;;;28.58;23.48;101265.25;5051387;28;1199;-24
2023/01/13 12:54:00;;;;;;;;;;;;;;;29.53;22.11;101279.50;5034526;28;1299;-25
2023/01/13 12:56:31;;;;;;;;;;;;;;;29.31;22.43;101277.50;5048885;28;1040;-24
2023/01/13 12:59:15;;;;;;;;;;;;;;;28.68;23.21;101291.22;5047375;28;1300;-24
2023/01/13 13:01:40;;;;;;;;;;;;;;;28.38;23.56;101288.41;5048619;28;1136;-25
2023/01/13 13:04:06;;;;;;;;;;;;;;;28.42;23.66;101289.72;5029247;28;1339;-27
2023/01/13 13:06:32;;;;;;;;;;;;;;;28.25;23.54;101292.50;5054550;28;1064;-24
2023/01/13 13:09:00;;;;;;;;;;;;;;;28.08;23.08;101294.44;5028707;28;2064;-23
2023/01/13 13:14:37;;;;;;;;;;;;;;;27.76;22.95;101291.69;5045552;28;1117;-27
2023/01/13 13:17:03;;;;;;;;;;;;;;;27.95;23.05;101286.88;5053963;28;1067;-24
2023/01/13 13:19:28;;;;;;;;;;;;;;;28.46;22.99;101291.06;5054297;28;1890;-24
2023/01/13 13:22:05;;;;;;;;;;;;;;;28.60;23.05;101297.53;5055148;28;1156;-21
2023/01/13 13:24:31;;;;;;;;;;;;;;;28.68;22.88;101288.50;5055376;28;1235;-24
2023/01/13 13:26:56;;;;;;;;;;;;;;;28.80;23.00;101292.50;5056205;28;1306;-29
2023/01/13 13:29:42;;;;;;;;;;;;;;;28.64;23.06;101290.75;5056443;28;1250;-23
2023/01/13 13:32:24;;;;;;;;;;;;;;;28.80;22.90;101286.22;5040100;28;1228;-22
2023/01/13 13:34:55;;;;;;;;;;;;;;;28.09;23.46;101282.59;5053382;28;1066;-22
2023/01/13 13:37:20;;;;;;;;;;;;;;;28.89;22.81;101278.88;5050605;28;1255;-24
2023/01/13 13:48:23;;;;;;;;;;;;;;;28.72;22.72;101293.41;5076570;28;1027;-23
2023/01/13 13:51:02;;;;;;;;;;;;;;;28.06;23.49;101291.91;5053511;28;1722;-23
2023/01/13 13:53:31;;;;;;;;;;;;;;;27.89;23.88;101287.59;5063242;28;1056;-23